sensor_id;sensor_type;location;lat;lon;timestamp;pressure;altitude;pressure_sealevel;temperature;humidity
24558;BME280;12726;49.148;8.582;2023-05-07T00:01:55;100247.97;;;14.35;92.98
24558;BME280;12726;49.148;8.582;2023-05-07T00:04:40;100254.47;;;14.34;93.02
24558;BME280;12726;49.148;8.582;2023-05-07T00:07:26;100246.59;;;14.33;93.01
24558;BME280;12726;49.148;8.582;2023-05-07T00:10:12;100247.41;;;14.33;92.93
24558;BME280;12726;49.148;8.582;2023-05-07T00:12:58;100255.53;;;14.33;92.67
24558;BME280;12726;49.148;8.582;2023-05-07T00:15:43;100243.28;;;14.31;92.80
24558;BME280;12726;49.148;8.582;2023-05-07T00:18:28;100238.38;;;14.28;93.09
24558;BME280;12726;49.148;8.582;2023-05-07T00:21:14;100225.38;;;14.30;93.06
24558;BME280;12726;49.148;8.582;2023-05-07T00:23:59;100232.44;;;14.31;92.43
24558;BME280;12726;49.148;8.582;2023-05-07T00:26:46;100237.28;;;14.29;92.00
24558;BME280;12726;49.148;8.582;2023-05-07T00:29:31;100248.38;;;14.27;92.14
24558;BME280;12726;49.148;8.582;2023-05-07T00:32:16;100236.38;;;14.23;92.08
24558;BME280;12726;49.148;8.582;2023-05-07T00:35:02;100229.78;;;14.19;92.32
24558;BME280;12726;49.148;8.582;2023-05-07T00:37:47;100236.28;;;14.18;92.56
24558;BME280;12726;49.148;8.582;2023-05-07T00:40:33;100240.03;;;14.17;92.61
24558;BME280;12726;49.148;8.582;2023-05-07T00:43:20;100232.75;;;14.18;92.87
24558;BME280;12726;49.148;8.582;2023-05-07T00:46:05;100227.22;;;14.13;93.33
24558;BME280;12726;49.148;8.582;2023-05-07T00:48:50;100228.06;;;14.13;93.26
24558;BME280;12726;49.148;8.582;2023-05-07T00:51:36;100232.06;;;14.10;93.30
24558;BME280;12726;49.148;8.582;2023-05-07T00:54:21;100236.19;;;14.13;93.12
24558;BME280;12726;49.148;8.582;2023-05-07T00:57:08;100222.06;;;14.11;93.30
24558;BME280;12726;49.148;8.582;2023-05-07T00:59:56;100224.16;;;14.09;93.39
24558;BME280;12726;49.148;8.582;2023-05-07T01:02:42;100211.38;;;14.04;93.62
24558;BME280;12726;49.148;8.582;2023-05-07T01:05:28;100219.72;;;14.03;93.88
24558;BME280;12726;49.148;8.582;2023-05-07T01:08:15;100218.88;;;14.02;93.79
24558;BME280;12726;49.148;8.582;2023-05-07T01:11:01;100210.44;;;13.99;93.75
24558;BME280;12726;49.148;8.582;2023-05-07T01:13:48;100220.31;;;13.93;93.70
24558;BME280;12726;49.148;8.582;2023-05-07T01:16:36;100226.41;;;14.00;93.89
24558;BME280;12726;49.148;8.582;2023-05-07T01:19:21;100223.16;;;13.98;93.36
24558;BME280;12726;49.148;8.582;2023-05-07T01:22:09;100224.44;;;13.96;93.61
24558;BME280;12726;49.148;8.582;2023-05-07T01:24:56;100226.31;;;13.95;93.71
24558;BME280;12726;49.148;8.582;2023-05-07T01:27:43;100213.59;;;13.96;93.98
24558;BME280;12726;49.148;8.582;2023-05-07T01:30:29;100221.50;;;13.97;93.83
24558;BME280;12726;49.148;8.582;2023-05-07T01:33:18;100215.59;;;14.00;93.26
24558;BME280;12726;49.148;8.582;2023-05-07T01:36:06;100215.59;;;14.00;93.11
24558;BME280;12726;49.148;8.582;2023-05-07T01:38:53;100213.25;;;14.04;92.99
24558;BME280;12726;49.148;8.582;2023-05-07T01:41:39;100225.72;;;14.05;92.80
24558;BME280;12726;49.148;8.582;2023-05-07T01:44:26;100215.44;;;14.07;92.73
24558;BME280;12726;49.148;8.582;2023-05-07T01:47:12;100209.81;;;14.08;92.58
24558;BME280;12726;49.148;8.582;2023-05-07T01:49:58;100210.03;;;14.07;92.22
24558;BME280;12726;49.148;8.582;2023-05-07T01:52:44;100217.38;;;14.06;92.29
24558;BME280;12726;49.148;8.582;2023-05-07T01:55:29;100218.66;;;14.04;92.32
24558;BME280;12726;49.148;8.582;2023-05-07T01:58:16;100217.84;;;14.03;92.21
24558;BME280;12726;49.148;8.582;2023-05-07T02:01:01;100223.25;;;14.03;92.19
24558;BME280;12726;49.148;8.582;2023-05-07T02:03:46;100226.19;;;14.02;92.25
24558;BME280;12726;49.148;8.582;2023-05-07T02:06:32;100224.78;;;13.99;92.32
24558;BME280;12726;49.148;8.582;2023-05-07T02:09:17;100227.50;;;13.99;92.31
24558;BME280;12726;49.148;8.582;2023-05-07T02:12:03;100222.31;;;13.98;92.54
24558;BME280;12726;49.148;8.582;2023-05-07T02:14:50;100217.97;;;13.97;92.53
24558;BME280;12726;49.148;8.582;2023-05-07T02:17:35;100224.44;;;13.96;92.68
24558;BME280;12726;49.148;8.582;2023-05-07T02:20:21;100216.78;;;13.93;92.82
24558;BME280;12726;49.148;8.582;2023-05-07T02:23:06;100220.81;;;13.90;92.83
24558;BME280;12726;49.148;8.582;2023-05-07T02:25:52;100206.91;;;13.87;93.41
24558;BME280;12726;49.148;8.582;2023-05-07T02:28:37;100217.75;;;13.87;93.30
24558;BME280;12726;49.148;8.582;2023-05-07T02:31:24;100225.28;;;13.85;93.54
24558;BME280;12726;49.148;8.582;2023-05-07T02:34:09;100233.88;;;13.82;93.42
24558;BME280;12726;49.148;8.582;2023-05-07T02:36:54;100231.63;;;13.79;93.61
24558;BME280;12726;49.148;8.582;2023-05-07T02:39:40;100229.41;;;13.76;93.85
24558;BME280;12726;49.148;8.582;2023-05-07T02:42:26;100224.00;;;13.76;93.80
24558;BME280;12726;49.148;8.582;2023-05-07T02:45:11;100219.88;;;13.73;93.51
24558;BME280;12726;49.148;8.582;2023-05-07T02:47:58;100216.25;;;13.67;93.43
24558;BME280;12726;49.148;8.582;2023-05-07T02:50:43;100222.03;;;13.71;93.32
24558;BME280;12726;49.148;8.582;2023-05-07T02:53:29;100226.34;;;13.72;93.28
24558;BME280;12726;49.148;8.582;2023-05-07T02:56:15;100220.13;;;13.71;93.17
24558;BME280;12726;49.148;8.582;2023-05-07T02:59:00;100224.25;;;13.74;93.10
24558;BME280;12726;49.148;8.582;2023-05-07T03:01:45;100215.91;;;13.76;92.80
24558;BME280;12726;49.148;8.582;2023-05-07T03:04:31;100209.19;;;13.78;92.36
24558;BME280;12726;49.148;8.582;2023-05-07T03:07:16;100194.34;;;13.81;92.19
24558;BME280;12726;49.148;8.582;2023-05-07T03:10:02;100201.78;;;13.73;92.56
24558;BME280;12726;49.148;8.582;2023-05-07T03:12:48;100200.25;;;13.66;93.10
24558;BME280;12726;49.148;8.582;2023-05-07T03:15:33;100194.50;;;13.62;93.86
24558;BME280;12726;49.148;8.582;2023-05-07T03:18:18;100193.91;;;13.60;93.77
24558;BME280;12726;49.148;8.582;2023-05-07T03:21:05;100193.59;;;13.57;94.25
24558;BME280;12726;49.148;8.582;2023-05-07T03:23:51;100195.31;;;13.51;94.93
24558;BME280;12726;49.148;8.582;2023-05-07T03:26:36;100197.34;;;13.44;95.19
24558;BME280;12726;49.148;8.582;2023-05-07T03:29:21;100198.06;;;13.40;95.35
24558;BME280;12726;49.148;8.582;2023-05-07T03:32:07;100197.34;;;13.32;96.25
24558;BME280;12726;49.148;8.582;2023-05-07T03:34:52;100192.16;;;13.31;96.49
24558;BME280;12726;49.148;8.582;2023-05-07T03:37:39;100194.53;;;13.27;96.39
24558;BME280;12726;49.148;8.582;2023-05-07T03:40:25;100203.69;;;13.26;96.40
24558;BME280;12726;49.148;8.582;2023-05-07T03:43:10;100202.88;;;13.26;96.23
24558;BME280;12726;49.148;8.582;2023-05-07T03:45:56;100201.69;;;13.22;96.04
24558;BME280;12726;49.148;8.582;2023-05-07T03:48:41;100214.63;;;13.20;96.39
24558;BME280;12726;49.148;8.582;2023-05-07T03:51:27;100221.81;;;13.14;96.75
24558;BME280;12726;49.148;8.582;2023-05-07T03:54:13;100219.75;;;13.10;96.97
24558;BME280;12726;49.148;8.582;2023-05-07T03:56:59;100222.94;;;13.07;97.23
24558;BME280;12726;49.148;8.582;2023-05-07T03:59:44;100222.44;;;13.10;97.42
24558;BME280;12726;49.148;8.582;2023-05-07T04:02:29;100234.56;;;13.07;97.54
24558;BME280;12726;49.148;8.582;2023-05-07T04:05:15;100237.50;;;13.06;97.76
24558;BME280;12726;49.148;8.582;2023-05-07T04:08:01;100236.66;;;13.05;97.92
24558;BME280;12726;49.148;8.582;2023-05-07T04:10:47;100239.38;;;13.05;98.12
24558;BME280;12726;49.148;8.582;2023-05-07T04:13:33;100239.38;;;13.05;97.90
24558;BME280;12726;49.148;8.582;2023-05-07T04:16:18;100233.16;;;13.05;98.14
24558;BME280;12726;49.148;8.582;2023-05-07T04:19:03;100238.06;;;13.08;98.16
24558;BME280;12726;49.148;8.582;2023-05-07T04:21:49;100235.75;;;13.11;98.35
24558;BME280;12726;49.148;8.582;2023-05-07T04:24:35;100233.03;;;13.11;98.15
24558;BME280;12726;49.148;8.582;2023-05-07T04:27:21;100247.19;;;13.13;98.28
24558;BME280;12726;49.148;8.582;2023-05-07T04:30:08;100239.63;;;13.15;98.16
24558;BME280;12726;49.148;8.582;2023-05-07T04:32:53;100243.16;;;13.16;97.98
24558;BME280;12726;49.148;8.582;2023-05-07T04:35:40;100240.00;;;13.19;97.59
24558;BME280;12726;49.148;8.582;2023-05-07T04:38:25;100242.00;;;13.23;97.29
24558;BME280;12726;49.148;8.582;2023-05-07T04:41:12;100242.72;;;13.30;96.58
24558;BME280;12726;49.148;8.582;2023-05-07T04:43:59;100231.56;;;13.39;96.11
24558;BME280;12726;49.148;8.582;2023-05-07T04:46:44;100241.56;;;13.50;95.01
24558;BME280;12726;49.148;8.582;2023-05-07T04:49:29;100239.06;;;13.60;94.58
24558;BME280;12726;49.148;8.582;2023-05-07T04:52:15;100242.03;;;13.70;94.04
24558;BME280;12726;49.148;8.582;2023-05-07T04:55:00;100241.06;;;13.76;93.67
24558;BME280;12726;49.148;8.582;2023-05-07T04:57:45;100246.34;;;13.83;92.88
24558;BME280;12726;49.148;8.582;2023-05-07T05:00:32;100254.25;;;13.84;92.17
24558;BME280;12726;49.148;8.582;2023-05-07T05:03:17;100249.25;;;13.93;91.41
24558;BME280;12726;49.148;8.582;2023-05-07T05:06:03;100254.09;;;13.91;90.95
24558;BME280;12726;49.148;8.582;2023-05-07T05:08:48;100259.75;;;13.89;90.96
24558;BME280;12726;49.148;8.582;2023-05-07T05:11:34;100259.03;;;13.94;90.69
24558;BME280;12726;49.148;8.582;2023-05-07T05:14:19;100265.16;;;13.89;90.28
24558;BME280;12726;49.148;8.582;2023-05-07T05:17:06;100278.09;;;13.99;90.50
24558;BME280;12726;49.148;8.582;2023-05-07T05:19:51;100275.28;;;14.05;90.17
24558;BME280;12726;49.148;8.582;2023-05-07T05:22:37;100276.44;;;14.09;89.37
24558;BME280;12726;49.148;8.582;2023-05-07T05:25:22;100268.66;;;14.13;88.70
24558;BME280;12726;49.148;8.582;2023-05-07T05:28:07;100266.06;;;14.18;88.79
24558;BME280;12726;49.148;8.582;2023-05-07T05:30:53;100276.75;;;14.25;88.38
24558;BME280;12726;49.148;8.582;2023-05-07T05:33:39;100271.78;;;14.33;88.24
24558;BME280;12726;49.148;8.582;2023-05-07T05:36:25;100274.72;;;14.43;87.79
24558;BME280;12726;49.148;8.582;2023-05-07T05:39:10;100276.44;;;14.49;88.20
24558;BME280;12726;49.148;8.582;2023-05-07T05:41:55;100279.13;;;14.61;87.43
24558;BME280;12726;49.148;8.582;2023-05-07T05:44:41;100275.78;;;14.71;87.26
24558;BME280;12726;49.148;8.582;2023-05-07T05:47:26;100283.63;;;14.84;86.49
24558;BME280;12726;49.148;8.582;2023-05-07T05:50:15;100278.22;;;15.01;85.07
24558;BME280;12726;49.148;8.582;2023-05-07T05:53:00;100284.97;;;15.15;84.99
24558;BME280;12726;49.148;8.582;2023-05-07T05:55:45;100284.66;;;15.28;84.64
24558;BME280;12726;49.148;8.582;2023-05-07T05:58:31;100286.13;;;15.52;82.71
24558;BME280;12726;49.148;8.582;2023-05-07T06:01:17;100285.00;;;15.65;82.92
24558;BME280;12726;49.148;8.582;2023-05-07T06:04:02;100293.97;;;15.65;81.55
24558;BME280;12726;49.148;8.582;2023-05-07T06:06:49;100291.06;;;15.72;81.30
24558;BME280;12726;49.148;8.582;2023-05-07T06:09:34;100294.41;;;15.96;80.69
24558;BME280;12726;49.148;8.582;2023-05-07T06:12:20;100288.75;;;16.19;79.77
24558;BME280;12726;49.148;8.582;2023-05-07T06:15:06;100285.78;;;16.42;76.79
24558;BME280;12726;49.148;8.582;2023-05-07T06:17:51;100286.16;;;16.51;76.26
24558;BME280;12726;49.148;8.582;2023-05-07T06:20:37;100269.19;;;16.61;76.54
24558;BME280;12726;49.148;8.582;2023-05-07T06:23:24;100278.88;;;16.78;74.49
24558;BME280;12726;49.148;8.582;2023-05-07T06:26:09;100282.88;;;16.98;75.50
24558;BME280;12726;49.148;8.582;2023-05-07T06:28:55;100282.88;;;17.30;72.89
24558;BME280;12726;49.148;8.582;2023-05-07T06:31:40;100284.03;;;17.71;72.53
24558;BME280;12726;49.148;8.582;2023-05-07T06:34:26;100281.25;;;18.08;70.36
24558;BME280;12726;49.148;8.582;2023-05-07T06:37:11;100287.78;;;18.69;66.86
24558;BME280;12726;49.148;8.582;2023-05-07T06:39:58;100279.97;;;19.08;64.46
24558;BME280;12726;49.148;8.582;2023-05-07T06:42:43;100275.31;;;19.18;64.90
24558;BME280;12726;49.148;8.582;2023-05-07T06:45:28;100270.72;;;19.39;63.17
24558;BME280;12726;49.148;8.582;2023-05-07T06:48:14;100274.25;;;19.25;62.03
24558;BME280;12726;49.148;8.582;2023-05-07T06:50:59;100266.88;;;19.35;63.37
24558;BME280;12726;49.148;8.582;2023-05-07T06:53:44;100278.63;;;19.61;62.33
24558;BME280;12726;49.148;8.582;2023-05-07T06:56:31;100272.25;;;20.06;61.39
24558;BME280;12726;49.148;8.582;2023-05-07T06:59:17;100274.63;;;20.33;59.82
24558;BME280;12726;49.148;8.582;2023-05-07T07:02:03;100275.38;;;20.49;59.34
24558;BME280;12726;49.148;8.582;2023-05-07T07:04:48;100278.47;;;20.22;59.10
24558;BME280;12726;49.148;8.582;2023-05-07T07:07:33;100283.53;;;19.74;60.12
24558;BME280;12726;49.148;8.582;2023-05-07T07:10:19;100287.09;;;19.75;60.94
24558;BME280;12726;49.148;8.582;2023-05-07T07:13:06;100283.97;;;20.17;60.27
24558;BME280;12726;49.148;8.582;2023-05-07T07:15:51;100285.91;;;21.20;57.34
24558;BME280;12726;49.148;8.582;2023-05-07T07:18:37;100280.28;;;21.40;56.70
24558;BME280;12726;49.148;8.582;2023-05-07T07:21:22;100288.97;;;21.76;55.23
24558;BME280;12726;49.148;8.582;2023-05-07T07:24:08;100286.06;;;22.20;55.37
24558;BME280;12726;49.148;8.582;2023-05-07T07:26:53;100280.97;;;22.56;52.97
24558;BME280;12726;49.148;8.582;2023-05-07T07:29:41;100283.13;;;22.59;53.23
24558;BME280;12726;49.148;8.582;2023-05-07T07:32:26;100285.19;;;22.48;52.51
24558;BME280;12726;49.148;8.582;2023-05-07T07:35:11;100271.53;;;22.86;52.23
24558;BME280;12726;49.148;8.582;2023-05-07T07:37:57;100278.56;;;22.92;51.15
24558;BME280;12726;49.148;8.582;2023-05-07T07:40:42;100281.28;;;23.29;49.22
24558;BME280;12726;49.148;8.582;2023-05-07T07:43:28;100281.03;;;23.45;49.14
24558;BME280;12726;49.148;8.582;2023-05-07T07:46:15;100293.44;;;23.23;49.43
24558;BME280;12726;49.148;8.582;2023-05-07T07:49:00;100300.84;;;22.00;52.76
24558;BME280;12726;49.148;8.582;2023-05-07T07:51:45;100302.44;;;21.43;53.51
24558;BME280;12726;49.148;8.582;2023-05-07T07:54:31;100299.50;;;20.91;55.33
24558;BME280;12726;49.148;8.582;2023-05-07T07:57:16;100296.88;;;21.20;55.93
24558;BME280;12726;49.148;8.582;2023-05-07T08:00:02;100294.25;;;21.72;55.66
24558;BME280;12726;49.148;8.582;2023-05-07T08:02:49;100295.72;;;22.60;52.65
24558;BME280;12726;49.148;8.582;2023-05-07T08:05:34;100291.03;;;23.22;49.96
24558;BME280;12726;49.148;8.582;2023-05-07T08:08:20;100296.28;;;23.37;50.00
24558;BME280;12726;49.148;8.582;2023-05-07T08:11:06;100296.19;;;23.23;49.57
24558;BME280;12726;49.148;8.582;2023-05-07T08:13:51;100285.59;;;23.68;49.87
24558;BME280;12726;49.148;8.582;2023-05-07T08:16:36;100291.91;;;24.28;47.70
24558;BME280;12726;49.148;8.582;2023-05-07T08:19:23;100294.22;;;24.48;47.22
24558;BME280;12726;49.148;8.582;2023-05-07T08:22:09;100300.03;;;25.10;46.65
24558;BME280;12726;49.148;8.582;2023-05-07T08:24:54;100283.75;;;24.86;46.10
24558;BME280;12726;49.148;8.582;2023-05-07T08:27:40;100295.97;;;24.94;46.30
24558;BME280;12726;49.148;8.582;2023-05-07T08:30:25;100293.88;;;24.91;46.37
24558;BME280;12726;49.148;8.582;2023-05-07T08:33:11;100298.72;;;25.30;46.62
24558;BME280;12726;49.148;8.582;2023-05-07T08:35:57;100298.59;;;25.57;46.57
24558;BME280;12726;49.148;8.582;2023-05-07T08:38:43;100305.06;;;24.94;47.21
24558;BME280;12726;49.148;8.582;2023-05-07T08:41:30;100301.13;;;24.59;48.58
24558;BME280;12726;49.148;8.582;2023-05-07T08:44:16;100298.59;;;25.13;47.59
24558;BME280;12726;49.148;8.582;2023-05-07T08:47:06;100300.94;;;25.95;46.49
24558;BME280;12726;49.148;8.582;2023-05-07T08:49:53;100295.50;;;25.81;45.11
24558;BME280;12726;49.148;8.582;2023-05-07T08:52:40;100298.09;;;25.33;46.58
24558;BME280;12726;49.148;8.582;2023-05-07T08:55:26;100294.69;;;25.81;45.92
24558;BME280;12726;49.148;8.582;2023-05-07T08:58:14;100294.06;;;26.80;44.16
24558;BME280;12726;49.148;8.582;2023-05-07T09:01:01;100293.94;;;27.37;42.55
24558;BME280;12726;49.148;8.582;2023-05-07T09:03:50;100288.94;;;28.02;40.44
24558;BME280;12726;49.148;8.582;2023-05-07T09:06:36;100290.69;;;28.16;38.71
24558;BME280;12726;49.148;8.582;2023-05-07T09:09:26;100289.63;;;27.91;40.38
24558;BME280;12726;49.148;8.582;2023-05-07T09:12:12;100289.13;;;27.97;39.90
24558;BME280;12726;49.148;8.582;2023-05-07T09:14:58;100289.72;;;27.48;39.81
24558;BME280;12726;49.148;8.582;2023-05-07T09:17:44;100281.75;;;27.29;41.34
24558;BME280;12726;49.148;8.582;2023-05-07T09:20:30;100280.03;;;27.88;41.03
24558;BME280;12726;49.148;8.582;2023-05-07T09:23:15;100284.63;;;28.22;39.75
24558;BME280;12726;49.148;8.582;2023-05-07T09:26:02;100280.00;;;28.35;38.95
24558;BME280;12726;49.148;8.582;2023-05-07T09:28:48;100281.31;;;28.37;37.67
24558;BME280;12726;49.148;8.582;2023-05-07T09:31:36;100272.09;;;28.54;38.93
24558;BME280;12726;49.148;8.582;2023-05-07T09:34:21;100281.06;;;28.80;37.01
24558;BME280;12726;49.148;8.582;2023-05-07T09:37:07;100278.34;;;28.93;38.51
24558;BME280;12726;49.148;8.582;2023-05-07T09:39:53;100274.72;;;28.51;38.12
24558;BME280;12726;49.148;8.582;2023-05-07T09:42:40;100279.59;;;28.83;39.43
24558;BME280;12726;49.148;8.582;2023-05-07T09:45:26;100280.03;;;29.27;37.14
24558;BME280;12726;49.148;8.582;2023-05-07T09:48:12;100277.13;;;29.44;37.38
24558;BME280;12726;49.148;8.582;2023-05-07T09:51:02;100267.31;;;29.46;37.63
24558;BME280;12726;49.148;8.582;2023-05-07T09:53:48;100256.28;;;29.83;37.97
24558;BME280;12726;49.148;8.582;2023-05-07T09:56:34;100256.69;;;30.18;36.13
24558;BME280;12726;49.148;8.582;2023-05-07T09:59:23;100256.47;;;30.11;36.57
24558;BME280;12726;49.148;8.582;2023-05-07T10:02:10;100254.59;;;30.15;36.38
24558;BME280;12726;49.148;8.582;2023-05-07T10:04:55;100254.66;;;29.82;37.41
24558;BME280;12726;49.148;8.582;2023-05-07T10:07:41;100249.66;;;29.63;37.78
24558;BME280;12726;49.148;8.582;2023-05-07T10:10:27;100251.78;;;29.90;36.22
24558;BME280;12726;49.148;8.582;2023-05-07T10:13:13;100244.81;;;29.84;36.01
24558;BME280;12726;49.148;8.582;2023-05-07T10:16:00;100244.31;;;29.46;37.45
24558;BME280;12726;49.148;8.582;2023-05-07T10:18:46;100238.69;;;29.67;37.52
24558;BME280;12726;49.148;8.582;2023-05-07T10:21:36;100245.28;;;29.74;36.63
24558;BME280;12726;49.148;8.582;2023-05-07T10:24:25;100247.50;;;29.36;37.97
24558;BME280;12726;49.148;8.582;2023-05-07T10:27:12;100244.56;;;29.65;36.93
24558;BME280;12726;49.148;8.582;2023-05-07T10:30:07;100248.75;;;29.71;36.56
24558;BME280;12726;49.148;8.582;2023-05-07T10:33:03;100247.78;;;30.00;37.01
24558;BME280;12726;49.148;8.582;2023-05-07T10:35:50;100245.22;;;30.31;37.25
24558;BME280;12726;49.148;8.582;2023-05-07T10:38:36;100232.94;;;30.57;36.74
24558;BME280;12726;49.148;8.582;2023-05-07T10:41:22;100237.00;;;30.99;36.16
24558;BME280;12726;49.148;8.582;2023-05-07T10:44:07;100241.94;;;30.78;36.90
24558;BME280;12726;49.148;8.582;2023-05-07T10:47:06;100239.50;;;30.77;33.91
24558;BME280;12726;49.148;8.582;2023-05-07T10:50:22;100231.38;;;28.96;36.77
24558;BME280;12726;49.148;8.582;2023-05-07T10:53:29;100232.50;;;29.16;37.03
24558;BME280;12726;49.148;8.582;2023-05-07T10:56:32;100230.09;;;28.94;39.24
24558;BME280;12726;49.148;8.582;2023-05-07T10:59:33;100221.81;;;29.27;38.93
24558;BME280;12726;49.148;8.582;2023-05-07T11:06:09;100219.94;;;29.51;38.79
24558;BME280;12726;49.148;8.582;2023-05-07T11:08:55;100228.41;;;29.91;37.11
24558;BME280;12726;49.148;8.582;2023-05-07T11:11:44;100220.09;;;29.79;37.27
24558;BME280;12726;49.148;8.582;2023-05-07T11:14:43;100209.25;;;29.98;36.81
24558;BME280;12726;49.148;8.582;2023-05-07T11:17:29;100208.19;;;30.27;36.57
24558;BME280;12726;49.148;8.582;2023-05-07T11:20:16;100210.88;;;30.00;36.00
24558;BME280;12726;49.148;8.582;2023-05-07T11:23:06;100208.34;;;29.94;36.14
24558;BME280;12726;49.148;8.582;2023-05-07T11:25:58;100212.59;;;30.16;35.70
24558;BME280;12726;49.148;8.582;2023-05-07T11:28:44;100204.03;;;30.33;36.53
24558;BME280;12726;49.148;8.582;2023-05-07T11:31:29;100205.41;;;29.79;34.91
24558;BME280;12726;49.148;8.582;2023-05-07T11:34:20;100204.31;;;28.72;36.42
24558;BME280;12726;49.148;8.582;2023-05-07T11:37:06;100200.38;;;28.82;37.14
24558;BME280;12726;49.148;8.582;2023-05-07T11:40:02;100194.94;;;28.65;36.72
24558;BME280;12726;49.148;8.582;2023-05-07T11:42:49;100190.59;;;28.85;38.68
24558;BME280;12726;49.148;8.582;2023-05-07T11:45:34;100188.41;;;28.49;38.10
24558;BME280;12726;49.148;8.582;2023-05-07T11:48:21;100189.59;;;28.60;37.48
24558;BME280;12726;49.148;8.582;2023-05-07T11:51:07;100186.34;;;28.58;36.94
24558;BME280;12726;49.148;8.582;2023-05-07T11:53:55;100191.28;;;28.73;37.99
24558;BME280;12726;49.148;8.582;2023-05-07T11:56:42;100189.44;;;28.35;39.48
24558;BME280;12726;49.148;8.582;2023-05-07T11:59:28;100194.94;;;28.86;38.47
24558;BME280;12726;49.148;8.582;2023-05-07T12:02:14;100181.78;;;29.15;37.33
24558;BME280;12726;49.148;8.582;2023-05-07T12:05:00;100179.13;;;29.40;36.91
24558;BME280;12726;49.148;8.582;2023-05-07T12:07:46;100191.53;;;29.67;37.38
24558;BME280;12726;49.148;8.582;2023-05-07T12:10:32;100192.09;;;29.60;36.49
24558;BME280;12726;49.148;8.582;2023-05-07T12:13:19;100191.78;;;28.75;37.04
24558;BME280;12726;49.148;8.582;2023-05-07T12:16:06;100176.94;;;28.71;37.96
24558;BME280;12726;49.148;8.582;2023-05-07T12:18:53;100185.69;;;28.11;39.07
24558;BME280;12726;49.148;8.582;2023-05-07T12:21:40;100174.81;;;27.76;39.81
24558;BME280;12726;49.148;8.582;2023-05-07T12:24:25;100177.41;;;27.73;39.23
24558;BME280;12726;49.148;8.582;2023-05-07T12:27:11;100177.78;;;28.51;38.47
24558;BME280;12726;49.148;8.582;2023-05-07T12:29:58;100176.69;;;28.64;37.93
24558;BME280;12726;49.148;8.582;2023-05-07T12:32:45;100182.88;;;28.49;37.82
24558;BME280;12726;49.148;8.582;2023-05-07T12:35:31;100181.66;;;27.99;38.65
24558;BME280;12726;49.148;8.582;2023-05-07T12:38:17;100175.44;;;27.26;39.98
24558;BME280;12726;49.148;8.582;2023-05-07T12:41:03;100175.66;;;26.70;40.11
24558;BME280;12726;49.148;8.582;2023-05-07T12:43:49;100179.53;;;26.51;41.14
24558;BME280;12726;49.148;8.582;2023-05-07T12:46:39;100170.63;;;26.98;40.44
24558;BME280;12726;49.148;8.582;2023-05-07T12:49:24;100174.13;;;27.33;39.69
24558;BME280;12726;49.148;8.582;2023-05-07T12:52:11;100172.81;;;27.30;39.34
24558;BME280;12726;49.148;8.582;2023-05-07T12:54:56;100173.44;;;27.53;40.13
24558;BME280;12726;49.148;8.582;2023-05-07T12:57:45;100171.78;;;27.52;40.72
24558;BME280;12726;49.148;8.582;2023-05-07T13:00:35;100170.38;;;27.28;39.13
24558;BME280;12726;49.148;8.582;2023-05-07T13:03:23;100177.72;;;27.07;39.93
24558;BME280;12726;49.148;8.582;2023-05-07T13:06:09;100166.38;;;26.83;40.21
24558;BME280;12726;49.148;8.582;2023-05-07T13:08:56;100162.00;;;26.73;43.75
24558;BME280;12726;49.148;8.582;2023-05-07T13:11:41;100167.19;;;26.58;43.07
24558;BME280;12726;49.148;8.582;2023-05-07T13:14:27;100162.66;;;26.36;43.64
24558;BME280;12726;49.148;8.582;2023-05-07T13:17:12;100159.16;;;26.04;43.62
24558;BME280;12726;49.148;8.582;2023-05-07T13:19:59;100147.91;;;25.84;43.56
24558;BME280;12726;49.148;8.582;2023-05-07T13:22:44;100153.53;;;25.70;44.87
24558;BME280;12726;49.148;8.582;2023-05-07T13:25:29;100135.66;;;25.36;43.08
24558;BME280;12726;49.148;8.582;2023-05-07T13:28:15;100141.34;;;24.87;44.11
24558;BME280;12726;49.148;8.582;2023-05-07T13:31:00;100139.03;;;24.80;44.50
24558;BME280;12726;49.148;8.582;2023-05-07T13:33:46;100130.97;;;24.62;46.94
24558;BME280;12726;49.148;8.582;2023-05-07T13:36:33;100153.22;;;24.15;49.34
24558;BME280;12726;49.148;8.582;2023-05-07T13:39:21;100175.84;;;23.71;55.27
24558;BME280;12726;49.148;8.582;2023-05-07T13:42:06;100197.75;;;22.60;62.50
24558;BME280;12726;49.148;8.582;2023-05-07T13:44:51;100216.84;;;21.57;66.70
24558;BME280;12726;49.148;8.582;2023-05-07T13:47:37;100246.03;;;20.00;64.22
24558;BME280;12726;49.148;8.582;2023-05-07T13:50:23;100258.78;;;18.32;70.65
24558;BME280;12726;49.148;8.582;2023-05-07T13:53:09;100297.00;;;16.95;81.88
24558;BME280;12726;49.148;8.582;2023-05-07T13:55:55;100321.09;;;16.42;81.65
24558;BME280;12726;49.148;8.582;2023-05-07T13:58:40;100319.91;;;15.95;83.53
24558;BME280;12726;49.148;8.582;2023-05-07T14:01:26;100330.47;;;15.75;85.16
24558;BME280;12726;49.148;8.582;2023-05-07T14:04:12;100328.75;;;15.69;85.04
24558;BME280;12726;49.148;8.582;2023-05-07T14:06:58;100324.06;;;15.64;83.99
24558;BME280;12726;49.148;8.582;2023-05-07T14:09:45;100333.13;;;15.53;85.48
24558;BME280;12726;49.148;8.582;2023-05-07T14:12:31;100319.28;;;15.38;84.85
24558;BME280;12726;49.148;8.582;2023-05-07T14:15:16;100325.25;;;15.23;86.90
24558;BME280;12726;49.148;8.582;2023-05-07T14:18:02;100319.00;;;15.22;87.68
24558;BME280;12726;49.148;8.582;2023-05-07T14:20:47;100331.25;;;15.25;88.65
24558;BME280;12726;49.148;8.582;2023-05-07T14:23:33;100347.97;;;15.34;89.20
24558;BME280;12726;49.148;8.582;2023-05-07T14:26:19;100352.56;;;15.33;90.00
24558;BME280;12726;49.148;8.582;2023-05-07T14:29:04;100358.31;;;15.20;91.17
24558;BME280;12726;49.148;8.582;2023-05-07T14:31:50;100357.94;;;15.16;93.70
24558;BME280;12726;49.148;8.582;2023-05-07T14:34:35;100347.47;;;15.20;94.41